createdAt,value
2018-09-02T00:00:32.282Z,11.33
2018-09-02T00:03:01.185Z,10.27
2018-09-02T00:05:29.597Z,10.83
2018-09-02T00:07:58.720Z,11.40
2018-09-02T00:10:27.030Z,11.33
2018-09-02T00:12:55.345Z,11.57
2018-09-02T00:15:23.847Z,12.60
2018-09-02T00:17:52.327Z,11.77
2018-09-02T00:20:21.269Z,11.30
2018-09-02T00:22:49.793Z,12.37
2018-09-02T00:25:18.254Z,12.20
2018-09-02T00:27:46.791Z,12.47
2018-09-02T00:30:15.143Z,11.27
2018-09-02T00:32:43.473Z,11.90
2018-09-02T00:35:11.915Z,12.27
2018-09-02T00:37:40.253Z,11.30
2018-09-02T00:40:08.665Z,12.70
2018-09-02T00:42:37.103Z,12.53
2018-09-02T00:45:05.836Z,12.87
2018-09-02T00:47:34.185Z,12.50
2018-09-02T00:50:02.563Z,12.10
2018-09-02T00:52:30.968Z,12.23
2018-09-02T00:54:59.331Z,12.50
2018-09-02T00:57:27.635Z,12.40
2018-09-02T00:59:56.256Z,12.10
2018-09-02T01:02:24.689Z,13.10
2018-09-02T01:04:53.068Z,12.37
2018-09-02T01:07:21.413Z,12.67
2018-09-02T01:09:49.827Z,13.37
2018-09-02T01:12:18.192Z,14.37
2018-09-02T01:14:46.696Z,14.50
2018-09-02T01:17:15.589Z,12.70
2018-09-02T01:19:43.901Z,14.30
2018-09-02T01:22:12.538Z,14.77
2018-09-02T01:24:40.899Z,14.90
2018-09-02T01:27:09.195Z,16.10
2018-09-02T01:29:37.574Z,15.03
2018-09-02T01:32:05.895Z,14.43
2018-09-02T01:34:34.233Z,16.40
2018-09-02T01:37:02.638Z,16.83
2018-09-02T01:39:31.346Z,17.47
2018-09-02T01:41:59.724Z,16.60
2018-09-02T01:44:28.889Z,15.30
2018-09-02T01:46:57.316Z,16.43
2018-09-02T01:49:25.690Z,16.10
2018-09-02T01:51:54.000Z,18.97
2018-09-02T01:54:22.349Z,21.57
2018-09-02T01:56:50.712Z,20.37
2018-09-02T01:59:19.336Z,19.40
2018-09-02T02:01:47.633Z,18.60
2018-09-02T02:04:15.955Z,18.70
2018-09-02T02:06:44.367Z,17.87
2018-09-02T02:09:12.716Z,16.97
2018-09-02T02:11:40.993Z,16.43
2018-09-02T02:14:09.676Z,17.40
2018-09-02T02:16:37.901Z,17.67
2018-09-02T02:19:06.223Z,16.90
2018-09-02T02:21:34.543Z,18.13
2018-09-02T02:24:02.861Z,16.70
2018-09-02T02:26:31.171Z,17.50
2018-09-02T02:28:59.534Z,17.50
2018-09-02T02:31:27.966Z,18.67
2018-09-02T02:33:56.646Z,18.50
2018-09-02T02:36:25.066Z,19.33
2018-09-02T02:38:53.769Z,18.13
2018-09-02T02:41:22.189Z,18.40
2018-09-02T02:43:50.558Z,16.80
2018-09-02T02:46:18.941Z,19.40
2018-09-02T02:48:47.278Z,17.43
2018-09-02T02:51:15.813Z,17.27
2018-09-02T02:53:44.212Z,16.50
2018-09-02T02:56:12.571Z,16.60
2018-09-02T02:58:40.977Z,17.90
2018-09-02T03:01:09.268Z,16.27
2018-09-02T03:03:37.605Z,17.20
2018-09-02T03:06:06.206Z,16.50
2018-09-02T03:08:34.707Z,17.20
2018-09-02T03:11:03.241Z,16.87
2018-09-02T03:13:31.609Z,17.20
2018-09-02T03:16:00.048Z,16.17
2018-09-02T03:18:28.371Z,15.50
2018-09-02T03:20:56.738Z,14.40
2018-09-02T03:23:25.075Z,15.50
2018-09-02T03:25:53.421Z,13.90
2018-09-02T03:28:21.922Z,14.93
2018-09-02T03:30:50.471Z,15.57
2018-09-02T03:33:18.829Z,15.40
2018-09-02T03:35:47.170Z,13.60
2018-09-02T03:38:15.496Z,14.13
2018-09-02T03:40:44.014Z,13.73
2018-09-02T03:43:12.403Z,14.47
2018-09-02T03:45:40.766Z,14.07
2018-09-02T03:48:09.086Z,14.53
2018-09-02T03:50:38.108Z,15.00
2018-09-02T03:53:06.875Z,15.70
2018-09-02T03:55:35.335Z,15.20
2018-09-02T03:58:03.685Z,16.40
2018-09-02T04:00:32.176Z,17.20
2018-09-02T04:03:00.492Z,18.27
2018-09-02T04:05:28.764Z,16.60
2018-09-02T04:07:57.107Z,15.77
2018-09-02T04:10:26.409Z,17.27
2018-09-02T04:12:54.777Z,17.40
2018-09-02T04:15:23.118Z,16.93
2018-09-02T04:17:51.445Z,18.03
2018-09-02T04:20:24.100Z,18.13
2018-09-02T04:22:52.546Z,17.30
2018-09-02T04:25:20.899Z,18.40
2018-09-02T04:27:49.291Z,17.00
2018-09-02T04:30:17.581Z,17.70
2018-09-02T04:32:45.931Z,16.07
2018-09-02T04:35:14.267Z,17.47
2018-09-02T04:37:42.637Z,16.33
2018-09-02T04:40:10.960Z,17.57
2018-09-02T04:42:39.336Z,19.20
2018-09-02T04:45:07.958Z,17.93
2018-09-02T04:47:36.278Z,17.37
2018-09-02T04:50:11.473Z,20.30
2018-09-02T04:52:39.816Z,20.07
2018-09-02T04:55:08.190Z,20.33
2018-09-02T04:57:36.779Z,19.97
2018-09-02T05:00:05.909Z,20.83
2018-09-02T05:02:34.444Z,23.10
2018-09-02T05:05:02.913Z,25.07
2018-09-02T05:07:31.787Z,25.07
2018-09-02T05:10:00.241Z,24.50
2018-09-02T05:12:28.695Z,23.90
2018-09-02T05:14:57.000Z,22.27
2018-09-02T05:17:27.401Z,22.23
2018-09-02T05:19:57.420Z,21.27
2018-09-02T05:22:25.730Z,16.73
2018-09-02T05:24:54.109Z,14.77
2018-09-02T05:27:22.673Z,14.00
2018-09-02T05:29:51.797Z,12.63
2018-09-02T05:32:20.677Z,12.50
2018-09-02T05:34:48.990Z,12.23
2018-09-02T05:37:17.394Z,11.40
2018-09-02T05:39:45.788Z,10.57
2018-09-02T05:42:14.228Z,10.73
2018-09-02T05:44:42.866Z,9.20
2018-09-02T05:47:11.331Z,10.10
2018-09-02T05:49:40.121Z,8.77
2018-09-02T05:52:08.508Z,9.80
2018-09-02T05:54:36.881Z,8.57
2018-09-02T05:57:05.556Z,8.80
2018-09-02T05:59:33.914Z,7.50
2018-09-02T06:02:02.566Z,8.20
2018-09-02T06:04:31.461Z,9.00
2018-09-02T06:06:59.798Z,7.57
2018-09-02T06:09:28.286Z,7.87
2018-09-02T06:11:56.534Z,8.50
2018-09-02T06:14:25.095Z,8.33
2018-09-02T06:16:53.695Z,7.70
2018-09-02T06:19:22.196Z,7.70
2018-09-02T06:21:50.581Z,7.80
2018-09-02T06:24:18.939Z,7.80
2018-09-02T06:26:47.318Z,6.97
2018-09-02T06:29:15.723Z,6.33
2018-09-02T06:31:44.077Z,7.90
2018-09-02T06:34:12.451Z,7.23
2018-09-02T06:36:40.790Z,6.83
2018-09-02T06:39:11.052Z,6.37
2018-09-02T06:41:39.692Z,7.20
2018-09-02T06:44:08.212Z,7.00
2018-09-02T06:46:36.867Z,6.60
2018-09-02T06:49:05.379Z,6.60
2018-09-02T06:51:33.723Z,7.20
2018-09-02T06:54:02.050Z,7.17
2018-09-02T06:56:30.333Z,7.20
2018-09-02T06:58:58.717Z,7.47
2018-09-02T07:01:27.850Z,8.27
2018-09-02T07:03:56.225Z,7.50
2018-09-02T07:06:24.544Z,6.90
2018-09-02T07:08:52.926Z,5.63
2018-09-02T07:11:21.317Z,7.03
2018-09-02T07:13:49.922Z,6.30
2018-09-02T07:16:18.195Z,6.43
2018-09-02T07:18:46.549Z,6.73
2018-09-02T07:21:14.864Z,7.43
2018-09-02T07:23:43.162Z,5.63
2018-09-02T07:26:11.570Z,6.07
2018-09-02T07:28:40.295Z,6.87
2018-09-02T07:31:08.788Z,5.93
2018-09-02T07:33:37.164Z,7.57
2018-09-02T07:36:05.546Z,6.30
2018-09-02T07:38:34.352Z,6.17
2018-09-02T07:41:03.152Z,5.20
2018-09-02T07:43:31.421Z,5.70
2018-09-02T07:46:01.090Z,5.30
2018-09-02T07:48:29.527Z,5.20
2018-09-02T07:50:59.041Z,5.47
2018-09-02T07:53:28.163Z,4.40
2018-09-02T07:55:56.490Z,4.87
2018-09-02T07:58:25.195Z,4.80
2018-09-02T08:00:53.832Z,4.40
2018-09-02T08:03:22.218Z,5.13
2018-09-02T08:05:50.669Z,4.87
2018-09-02T08:08:19.030Z,4.30
2018-09-02T08:10:47.976Z,4.00
2018-09-02T08:13:16.741Z,3.70
2018-09-02T08:15:45.226Z,3.73
2018-09-02T08:18:13.615Z,3.63
2018-09-02T08:20:45.516Z,3.63
2018-09-02T08:23:13.948Z,3.50
2018-09-02T08:25:42.270Z,3.40
2018-09-02T08:28:10.671Z,3.07
2018-09-02T08:30:39.184Z,3.50
2018-09-02T08:33:07.706Z,3.10
2018-09-02T08:35:35.889Z,3.03
2018-09-02T08:38:04.281Z,2.90
2018-09-02T08:40:32.806Z,3.10
2018-09-02T08:43:01.553Z,2.80
2018-09-02T08:45:29.907Z,2.73
2018-09-02T08:47:58.807Z,3.00
2018-09-02T08:50:27.249Z,2.63
2018-09-02T08:52:55.619Z,2.63
2018-09-02T08:55:24.343Z,2.13
2018-09-02T08:57:52.842Z,2.10
2018-09-02T09:00:21.256Z,2.33
2018-09-02T09:02:50.826Z,2.17
2018-09-02T09:05:19.235Z,2.00
2018-09-02T09:07:47.788Z,1.90
2018-09-02T09:10:15.929Z,2.77
2018-09-02T09:12:44.316Z,2.30
2018-09-02T09:15:12.862Z,2.40
2018-09-02T09:17:41.237Z,2.50
2018-09-02T09:20:09.843Z,2.43
2018-09-02T09:22:39.176Z,2.90
2018-09-02T09:25:09.257Z,2.83
2018-09-02T09:27:38.058Z,2.60
2018-09-02T09:30:06.974Z,2.20
2018-09-02T09:32:35.458Z,2.33
2018-09-02T09:35:03.830Z,2.77
2018-09-02T09:37:32.379Z,2.30
2018-09-02T09:40:01.512Z,2.63
2018-09-02T09:42:30.111Z,2.83
2018-09-02T09:44:58.656Z,2.37
2018-09-02T09:47:27.054Z,2.90
2018-09-02T09:49:55.540Z,2.33
2018-09-02T09:52:24.058Z,2.57
2018-09-02T09:54:52.429Z,2.07
2018-09-02T09:57:20.779Z,3.10
2018-09-02T09:59:49.178Z,2.20
2018-09-02T10:02:17.775Z,2.50
2018-09-02T10:04:46.745Z,1.93
2018-09-02T10:07:15.158Z,2.40
2018-09-02T10:09:44.122Z,2.23
2018-09-02T10:12:12.636Z,2.30
2018-09-02T10:14:41.030Z,2.70
2018-09-02T10:17:11.067Z,2.93
2018-09-02T10:19:39.655Z,1.83
2018-09-02T10:22:08.651Z,1.70
2018-09-02T10:24:37.450Z,2.40
2018-09-02T10:27:05.820Z,2.40
2018-09-02T10:29:34.303Z,2.20
2018-09-02T10:32:02.617Z,1.77
2018-09-02T10:34:31.214Z,2.43
2018-09-02T10:37:00.207Z,2.60
2018-09-02T10:39:28.919Z,2.00
2018-09-02T10:41:57.306Z,2.40
2018-09-02T10:44:25.665Z,2.67
2018-09-02T10:46:54.383Z,2.23
2018-09-02T10:49:23.199Z,1.97
2018-09-02T10:51:51.786Z,2.00
2018-09-02T10:54:20.654Z,2.30
2018-09-02T10:56:48.984Z,2.10
2018-09-02T10:59:17.296Z,2.57
2018-09-02T11:01:45.675Z,2.23
2018-09-02T11:04:14.146Z,2.97
2018-09-02T11:06:43.063Z,2.13
2018-09-02T11:09:11.864Z,1.97
2018-09-02T11:11:40.655Z,2.33
2018-09-02T11:14:10.329Z,2.10
2018-09-02T11:16:39.322Z,2.07
2018-09-02T11:19:07.856Z,2.20
2018-09-02T11:21:36.441Z,2.17
2018-09-02T11:24:05.169Z,2.47
2018-09-02T11:26:33.957Z,2.07
2018-09-02T11:29:02.576Z,2.50
2018-09-02T11:31:30.955Z,2.23
2018-09-02T11:33:59.765Z,1.60
2018-09-02T11:36:28.046Z,1.80
2018-09-02T11:38:57.085Z,2.30
2018-09-02T11:41:25.463Z,2.27
2018-09-02T11:43:54.388Z,2.67
2018-09-02T11:46:23.182Z,2.37
2018-09-02T11:48:51.556Z,2.20
2018-09-02T11:51:20.752Z,2.70
2018-09-02T11:53:49.091Z,2.00
2018-09-02T11:56:17.717Z,2.40
2018-09-02T11:58:47.891Z,2.30
2018-09-02T12:01:16.281Z,2.23
2018-09-02T12:03:44.601Z,2.67
2018-09-02T12:06:13.517Z,2.30
2018-09-02T12:08:42.060Z,2.17
2018-09-02T12:11:10.517Z,2.53
2018-09-02T12:13:38.895Z,2.03
2018-09-02T12:16:07.871Z,2.00
2018-09-02T12:18:36.605Z,1.83
2018-09-02T12:21:05.002Z,2.40
2018-09-02T12:23:33.602Z,2.37
2018-09-02T12:26:02.143Z,2.50
2018-09-02T12:28:30.476Z,2.40
2018-09-02T12:30:58.988Z,2.07
2018-09-02T12:33:27.432Z,1.97
2018-09-02T12:35:55.765Z,2.53
2018-09-02T12:38:24.177Z,2.50
2018-09-02T12:40:52.586Z,2.40
2018-09-02T12:43:20.967Z,2.20
2018-09-02T12:45:49.314Z,2.13
2018-09-02T12:48:17.761Z,2.43
2018-09-02T12:50:46.155Z,1.77
2018-09-02T12:53:15.553Z,2.63
2018-09-02T12:55:43.949Z,2.40
2018-09-02T12:58:12.356Z,2.33
2018-09-02T13:00:42.295Z,2.40
2018-09-02T13:03:11.322Z,2.23
2018-09-02T13:05:40.328Z,2.00
2018-09-02T13:08:08.673Z,1.40
2018-09-02T13:10:37.093Z,1.87
2018-09-02T13:13:05.632Z,1.90
2018-09-02T13:15:34.011Z,2.40
2018-09-02T13:18:02.734Z,2.50
2018-09-02T13:20:31.077Z,2.40
2018-09-02T13:22:59.445Z,2.43
2018-09-02T13:25:28.075Z,2.27
2018-09-02T13:27:56.359Z,2.20
2018-09-02T13:30:25.347Z,2.50
2018-09-02T13:32:53.686Z,2.93
2018-09-02T13:35:22.357Z,3.43
2018-09-02T13:37:51.203Z,3.23
2018-09-02T13:40:19.940Z,2.67
2018-09-02T13:42:48.461Z,3.43
2018-09-02T13:45:16.790Z,2.57
2018-09-02T13:47:45.230Z,2.37
2018-09-02T13:50:13.965Z,2.10
2018-09-02T13:52:42.284Z,2.30
2018-09-02T13:55:10.933Z,3.20
2018-09-02T13:57:39.297Z,1.67
2018-09-02T14:00:07.811Z,1.77
2018-09-02T14:02:36.178Z,2.23
2018-09-02T14:05:04.846Z,1.77
2018-09-02T14:07:33.176Z,4.80
2018-09-02T14:10:01.998Z,3.40
2018-09-02T14:12:30.419Z,2.00
2018-09-02T14:14:59.075Z,2.47
2018-09-02T14:17:27.483Z,2.70
2018-09-02T14:19:56.703Z,3.27
2018-09-02T14:22:25.430Z,1.97
2018-09-02T14:24:56.132Z,3.20
2018-09-02T14:27:25.500Z,4.07
2018-09-02T14:29:58.153Z,3.87
2018-09-02T14:32:27.548Z,3.93
2018-09-02T14:34:55.990Z,4.13
2018-09-02T14:37:24.416Z,3.00
2018-09-02T14:39:53.038Z,2.57
2018-09-02T14:42:21.416Z,2.43
2018-09-02T14:44:51.443Z,2.53
2018-09-02T14:47:19.790Z,2.37
2018-09-02T14:49:48.393Z,2.70
2018-09-02T14:52:17.817Z,2.50
2018-09-02T14:54:47.084Z,3.13
2018-09-02T14:57:15.452Z,2.40
2018-09-02T14:59:44.377Z,2.47
2018-09-02T15:02:12.777Z,1.73
2018-09-02T15:04:41.203Z,2.53
2018-09-02T15:07:09.680Z,2.50
2018-09-02T15:09:38.271Z,2.17
2018-09-02T15:12:07.588Z,1.93
2018-09-02T15:14:35.982Z,2.30
2018-09-02T15:17:04.338Z,2.10
2018-09-02T15:19:33.036Z,2.33
2018-09-02T15:22:01.377Z,2.37
2018-09-02T15:24:30.001Z,2.10
2018-09-02T15:26:58.449Z,2.47
2018-09-02T15:29:27.037Z,2.03
2018-09-02T15:31:55.809Z,2.70
2018-09-02T15:34:24.402Z,3.00
2018-09-02T15:36:52.888Z,2.37
2018-09-02T15:39:22.089Z,2.50
2018-09-02T15:41:50.520Z,2.50
2018-09-02T15:44:19.010Z,2.27
2018-09-02T15:46:47.343Z,2.70
2018-09-02T15:49:16.318Z,2.70
2018-09-02T15:51:44.694Z,2.40
2018-09-02T15:54:13.359Z,2.37
2018-09-02T15:56:42.719Z,2.60
2018-09-02T15:59:11.233Z,2.70
2018-09-02T16:01:41.280Z,2.80
2018-09-02T16:04:09.909Z,2.43
2018-09-02T16:06:38.300Z,2.10
2018-09-02T16:09:08.983Z,2.60
2018-09-02T16:11:37.656Z,2.30
2018-09-02T16:14:06.474Z,1.80
2018-09-02T16:16:34.922Z,2.23
2018-09-02T16:19:03.199Z,2.60
2018-09-02T16:21:31.698Z,2.00
2018-09-02T16:24:00.335Z,2.77
2018-09-02T16:26:28.749Z,2.20
2018-09-02T16:28:57.187Z,2.10
2018-09-02T16:31:25.961Z,1.80
2018-09-02T16:33:54.326Z,2.07
2018-09-02T16:36:22.794Z,1.57
2018-09-02T16:38:51.152Z,2.43
2018-09-02T16:41:19.893Z,2.40
2018-09-02T16:43:48.341Z,2.27
2018-09-02T16:46:16.698Z,2.57
2018-09-02T16:48:45.362Z,2.80
2018-09-02T16:51:13.776Z,2.70
2018-09-02T16:53:42.153Z,2.27
2018-09-02T16:56:10.517Z,2.40
2018-09-02T16:58:38.805Z,2.43
2018-09-02T17:01:07.092Z,2.40
2018-09-02T17:03:38.506Z,2.87
2018-09-02T17:06:06.976Z,2.53
2018-09-02T17:08:35.306Z,2.30
2018-09-02T17:11:03.757Z,2.90
2018-09-02T17:13:32.114Z,2.40
2018-09-02T17:16:00.418Z,2.60
2018-09-02T17:18:28.783Z,2.50
2018-09-02T17:20:57.187Z,2.63
2018-09-02T17:23:25.928Z,2.73
2018-09-02T17:25:54.901Z,2.53
2018-09-02T17:28:23.103Z,2.40
2018-09-02T17:30:51.692Z,2.53
2018-09-02T17:33:20.027Z,2.47
2018-09-02T17:35:48.334Z,2.33
2018-09-02T17:38:17.039Z,2.83
2018-09-02T17:40:45.610Z,2.50
2018-09-02T17:43:13.987Z,2.50
2018-09-02T17:45:42.740Z,2.60
2018-09-02T17:48:11.205Z,2.23
2018-09-02T17:50:39.548Z,2.83
2018-09-02T17:53:07.853Z,2.33
2018-09-02T17:55:36.680Z,2.50
2018-09-02T17:58:05.034Z,1.77
2018-09-02T18:00:38.458Z,2.30
2018-09-02T18:03:06.858Z,2.40
2018-09-02T18:05:35.216Z,2.23
2018-09-02T18:08:05.672Z,2.33
2018-09-02T18:10:34.500Z,2.23
2018-09-02T18:13:02.945Z,2.53
2018-09-02T18:15:31.260Z,2.10
2018-09-02T18:17:59.746Z,2.23
2018-09-02T18:20:28.543Z,2.43
2018-09-02T18:22:57.960Z,2.40
2018-09-02T18:25:26.452Z,3.00
2018-09-02T18:27:59.043Z,2.87
2018-09-02T18:30:27.553Z,2.33
2018-09-02T18:32:56.070Z,3.27
2018-09-02T18:35:24.652Z,3.67
2018-09-02T18:37:53.094Z,2.53
2018-09-02T18:40:22.721Z,3.10
2018-09-02T18:42:51.439Z,2.67
2018-09-02T18:45:20.110Z,3.10
2018-09-02T18:47:49.051Z,3.13
2018-09-02T18:50:17.945Z,3.10
2018-09-02T18:52:46.351Z,2.47
2018-09-02T18:55:14.769Z,2.90
2018-09-02T18:57:43.091Z,2.63
2018-09-02T19:00:11.757Z,2.90
2018-09-02T19:02:40.308Z,3.40
2018-09-02T19:05:08.710Z,3.17
2018-09-02T19:07:37.219Z,3.20
2018-09-02T19:10:06.267Z,3.13
2018-09-02T19:12:35.377Z,2.90
2018-09-02T19:15:04.296Z,2.13
2018-09-02T19:17:32.946Z,2.70
2018-09-02T19:20:01.457Z,2.93
2018-09-02T19:22:29.982Z,2.47
2018-09-02T19:24:59.554Z,3.10
2018-09-02T19:27:28.228Z,2.53
2018-09-02T19:29:56.737Z,3.40
2018-09-02T19:32:25.275Z,2.83
2018-09-02T19:34:53.820Z,3.80
2018-09-02T19:37:22.662Z,2.90
2018-09-02T19:39:51.130Z,3.23
2018-09-02T19:42:19.479Z,3.00
2018-09-02T19:44:47.953Z,2.93
2018-09-02T19:47:16.433Z,3.00
2018-09-02T19:49:45.685Z,3.10
2018-09-02T19:52:13.956Z,2.83
2018-09-02T19:54:42.365Z,2.67
2018-09-02T19:57:10.773Z,2.60
2018-09-02T19:59:39.142Z,2.60
2018-09-02T20:02:07.725Z,3.90
2018-09-02T20:04:36.104Z,3.10
2018-09-02T20:07:04.431Z,3.30
2018-09-02T20:09:32.865Z,2.80
2018-09-02T20:12:01.375Z,2.80
2018-09-02T20:14:29.813Z,3.23
2018-09-02T20:16:58.181Z,2.83
2018-09-02T20:19:26.631Z,2.80
2018-09-02T20:21:55.143Z,2.63
2018-09-02T20:24:24.679Z,3.03
2018-09-02T20:26:53.963Z,3.13
2018-09-02T20:29:22.897Z,3.30
2018-09-02T20:31:51.275Z,3.30
2018-09-02T20:34:20.189Z,3.23
2018-09-02T20:36:48.923Z,4.03
2018-09-02T20:39:17.404Z,3.87
2018-09-02T20:41:45.807Z,3.40
2018-09-02T20:44:15.072Z,3.63
2018-09-02T20:46:44.734Z,3.43
2018-09-02T20:49:13.106Z,3.13
2018-09-02T20:51:42.038Z,4.00
2018-09-02T20:54:10.381Z,3.87
2018-09-02T20:56:38.759Z,3.53
2018-09-02T20:59:07.741Z,3.60
2018-09-02T21:01:36.023Z,3.33
2018-09-02T21:04:04.727Z,3.57
2018-09-02T21:06:38.487Z,4.47
2018-09-02T21:09:12.494Z,3.90
2018-09-02T21:11:41.889Z,3.63
2018-09-02T21:14:10.888Z,4.10
2018-09-02T21:16:39.702Z,3.40
2018-09-02T21:19:08.064Z,3.30
2018-09-02T21:21:37.170Z,3.60
2018-09-02T21:24:05.726Z,3.33
2018-09-02T21:26:34.139Z,3.50
2018-09-02T21:29:02.997Z,3.30
2018-09-02T21:31:31.455Z,4.30
2018-09-02T21:34:00.037Z,3.53
2018-09-02T21:36:28.476Z,2.90
2018-09-02T21:38:57.354Z,3.57
2018-09-02T21:41:25.715Z,4.00
2018-09-02T21:43:54.110Z,4.10
2018-09-02T21:46:22.434Z,3.70
2018-09-02T21:48:51.062Z,3.40
2018-09-02T21:51:19.372Z,3.87
2018-09-02T21:53:47.732Z,4.00
2018-09-02T21:56:16.092Z,3.67
2018-09-02T21:58:44.517Z,3.17
2018-09-02T22:01:13.044Z,4.07
2018-09-02T22:03:41.481Z,4.00
2018-09-02T22:06:09.818Z,4.03
2018-09-02T22:08:38.191Z,3.40
2018-09-02T22:11:06.487Z,3.33
2018-09-02T22:13:34.802Z,3.80
2018-09-02T22:16:03.508Z,4.07
2018-09-02T22:18:31.940Z,3.63
2018-09-02T22:21:00.306Z,3.60
2018-09-02T22:23:28.670Z,3.90
2018-09-02T22:25:57.003Z,4.43
2018-09-02T22:28:25.434Z,3.63
2018-09-02T22:30:53.843Z,3.70
2018-09-02T22:33:22.212Z,4.60
2018-09-02T22:35:50.609Z,4.27
2018-09-02T22:38:18.993Z,4.77
2018-09-02T22:40:47.608Z,3.60
2018-09-02T22:43:15.878Z,4.80
2018-09-02T22:45:44.233Z,4.53
2018-09-02T22:48:12.521Z,4.23
2018-09-02T22:50:40.909Z,4.40
2018-09-02T22:53:09.391Z,4.60
2018-09-02T22:55:37.777Z,4.50
2018-09-02T22:58:06.269Z,4.60
2018-09-02T23:00:34.759Z,4.27
2018-09-02T23:03:03.388Z,4.20
2018-09-02T23:05:31.730Z,4.60
2018-09-02T23:07:59.985Z,3.70
2018-09-02T23:10:28.346Z,3.50
2018-09-02T23:12:56.801Z,4.20
2018-09-02T23:15:25.148Z,4.00
2018-09-02T23:17:53.455Z,3.70
2018-09-02T23:20:21.880Z,4.10
2018-09-02T23:22:50.245Z,4.30
2018-09-02T23:25:18.626Z,4.40
2018-09-02T23:27:47.030Z,4.10
2018-09-02T23:30:15.402Z,4.37
2018-09-02T23:32:43.727Z,4.10
2018-09-02T23:35:12.071Z,5.33
2018-09-02T23:37:40.426Z,4.53
2018-09-02T23:40:08.794Z,3.97
2018-09-02T23:42:37.429Z,5.13
2018-09-02T23:45:06.277Z,5.07
2018-09-02T23:47:34.615Z,4.60
2018-09-02T23:50:02.947Z,4.80
2018-09-02T23:52:31.254Z,3.80
2018-09-02T23:54:59.743Z,4.67
2018-09-02T23:57:28.035Z,4.63
2018-09-02T23:59:56.395Z,4.43
